createdAt,value
2023-05-19T00:00:17.925Z,15.90
2023-05-19T00:03:05.281Z,15.90
2023-05-19T00:05:53.700Z,15.90
2023-05-19T00:08:39.765Z,15.90
2023-05-19T00:11:26.994Z,15.80
2023-05-19T00:14:12.998Z,15.80
2023-05-19T00:16:58.880Z,15.70
2023-05-19T00:19:45.201Z,15.70
2023-05-19T00:22:31.103Z,15.70
2023-05-19T00:25:16.667Z,15.70
2023-05-19T00:28:03.109Z,15.70
2023-05-19T00:30:48.688Z,15.60
2023-05-19T00:33:34.565Z,15.60
2023-05-19T00:36:20.479Z,15.60
2023-05-19T00:39:06.066Z,15.60
2023-05-19T00:41:51.890Z,15.60
2023-05-19T00:44:41.358Z,15.50
2023-05-19T00:47:27.131Z,15.50
2023-05-19T00:50:12.684Z,15.60
2023-05-19T00:52:58.659Z,15.50
2023-05-19T00:55:44.352Z,15.50
2023-05-19T00:58:31.242Z,15.50
2023-05-19T01:01:17.764Z,15.50
2023-05-19T01:04:04.078Z,15.40
2023-05-19T01:06:49.857Z,15.40
2023-05-19T01:09:35.391Z,15.50
2023-05-19T01:12:22.756Z,15.40
2023-05-19T01:15:10.001Z,15.40
2023-05-19T01:18:07.475Z,15.40
2023-05-19T01:21:04.725Z,15.40
2023-05-19T01:23:51.173Z,15.40
2023-05-19T01:27:12.786Z,15.40
2023-05-19T01:30:18.204Z,15.40
2023-05-19T01:33:07.085Z,15.40
2023-05-19T01:35:53.992Z,15.40
2023-05-19T01:38:40.253Z,15.40
2023-05-19T01:41:27.028Z,15.30
2023-05-19T01:44:13.282Z,15.30
2023-05-19T01:46:59.366Z,15.30
2023-05-19T01:49:45.034Z,15.30
2023-05-19T01:52:30.727Z,15.20
2023-05-19T01:55:16.330Z,15.20
2023-05-19T01:58:13.138Z,15.20
2023-05-19T02:01:07.955Z,15.20
2023-05-19T02:04:06.258Z,15.20
2023-05-19T02:07:02.390Z,15.20
2023-05-19T02:09:54.056Z,15.20
2023-05-19T02:12:40.775Z,15.20
2023-05-19T02:15:30.141Z,15.20
2023-05-19T02:18:18.093Z,15.20
2023-05-19T02:21:03.770Z,15.20
2023-05-19T02:23:49.298Z,15.20
2023-05-19T02:26:34.754Z,15.20
2023-05-19T02:29:22.981Z,15.20
2023-05-19T02:32:09.725Z,15.20
2023-05-19T02:34:56.563Z,15.20
2023-05-19T02:37:42.063Z,15.20
2023-05-19T02:40:28.032Z,15.20
2023-05-19T02:43:13.681Z,15.20
2023-05-19T02:45:59.522Z,15.10
2023-05-19T02:48:45.624Z,15.20
2023-05-19T02:51:31.489Z,15.20
2023-05-19T02:54:17.158Z,15.10
2023-05-19T02:57:03.052Z,15.10
2023-05-19T02:59:48.592Z,15.10
2023-05-19T03:02:35.615Z,15.10
2023-05-19T03:05:21.324Z,15.10
2023-05-19T03:08:07.316Z,15.00
2023-05-19T03:10:53.056Z,15.00
2023-05-19T03:13:38.647Z,15.00
2023-05-19T03:16:24.797Z,14.90
2023-05-19T03:19:10.747Z,14.90
2023-05-19T03:21:56.558Z,15.00
2023-05-19T03:24:42.174Z,14.90
2023-05-19T03:27:27.690Z,15.00
2023-05-19T03:30:14.349Z,15.00
2023-05-19T03:33:13.881Z,15.00
2023-05-19T03:36:00.172Z,15.00
2023-05-19T03:38:48.373Z,15.00
2023-05-19T03:41:34.262Z,15.00
2023-05-19T03:44:21.466Z,15.00
2023-05-19T03:47:07.129Z,14.90
2023-05-19T03:50:25.063Z,14.90
2023-05-19T03:53:15.731Z,14.90
2023-05-19T03:56:01.659Z,14.90
2023-05-19T03:58:49.812Z,14.90
2023-05-19T04:01:35.540Z,14.90
2023-05-19T04:04:22.144Z,14.80
2023-05-19T04:07:07.933Z,14.80
2023-05-19T04:09:54.336Z,14.80
2023-05-19T04:12:39.972Z,14.80
2023-05-19T04:15:26.113Z,14.70
2023-05-19T04:18:11.853Z,14.70
2023-05-19T04:20:59.099Z,14.80
2023-05-19T04:23:44.847Z,14.80
2023-05-19T04:26:31.228Z,14.70
2023-05-19T04:29:18.741Z,14.70
2023-05-19T04:32:07.896Z,14.50
2023-05-19T04:34:54.246Z,14.50
2023-05-19T04:37:46.114Z,14.50
2023-05-19T04:40:33.788Z,14.50
2023-05-19T04:43:19.654Z,14.40
2023-05-19T04:46:06.370Z,14.40
2023-05-19T04:48:53.281Z,14.40
2023-05-19T04:51:41.459Z,14.40
2023-05-19T04:54:27.638Z,14.40
2023-05-19T04:57:15.088Z,14.40
2023-05-19T05:00:00.737Z,14.40
2023-05-19T05:02:52.952Z,14.40
2023-05-19T05:05:40.183Z,14.50
2023-05-19T05:08:26.045Z,14.50
2023-05-19T05:11:12.831Z,14.50
2023-05-19T05:13:58.646Z,14.40
2023-05-19T05:16:47.205Z,14.40
2023-05-19T05:19:38.065Z,14.40
2023-05-19T05:22:28.357Z,14.40
2023-05-19T05:25:14.765Z,14.40
2023-05-19T05:28:05.198Z,14.50
2023-05-19T05:30:51.789Z,14.60
2023-05-19T05:33:37.807Z,14.60
2023-05-19T05:36:23.782Z,14.60
2023-05-19T05:39:09.778Z,14.60
2023-05-19T05:41:57.330Z,14.70
2023-05-19T05:44:43.174Z,14.70
2023-05-19T05:47:29.718Z,14.70
2023-05-19T05:50:15.467Z,14.70
2023-05-19T05:53:01.676Z,14.70
2023-05-19T05:55:47.912Z,14.70
2023-05-19T05:58:37.428Z,14.70
2023-05-19T06:01:24.155Z,14.80
2023-05-19T06:04:11.105Z,14.70
2023-05-19T06:07:01.253Z,14.70
2023-05-19T06:09:50.554Z,14.70
2023-05-19T06:12:36.500Z,14.70
2023-05-19T06:15:22.461Z,14.70
2023-05-19T06:18:11.500Z,14.80
2023-05-19T06:20:59.049Z,14.80
2023-05-19T06:23:44.650Z,14.80
2023-05-19T06:26:30.903Z,14.80
2023-05-19T06:29:17.296Z,14.80
2023-05-19T06:32:03.765Z,14.90
2023-05-19T06:34:55.650Z,12.80
2023-05-19T06:37:41.719Z,14.90
2023-05-19T06:40:27.314Z,14.90
2023-05-19T06:43:14.461Z,14.90
2023-05-19T06:46:14.230Z,14.90
2023-05-19T06:49:02.252Z,14.90
2023-05-19T06:51:51.961Z,14.90
2023-05-19T06:54:38.892Z,14.90
2023-05-19T06:57:25.422Z,14.90
2023-05-19T07:00:14.509Z,14.90
2023-05-19T07:03:04.951Z,14.90
2023-05-19T07:05:54.553Z,14.90
2023-05-19T07:08:42.486Z,14.90
2023-05-19T07:11:31.254Z,14.90
2023-05-19T07:14:17.616Z,14.90
2023-05-19T07:17:03.512Z,14.90
2023-05-19T07:19:50.098Z,14.90
2023-05-19T07:22:36.215Z,15.00
2023-05-19T07:25:22.242Z,14.90
2023-05-19T07:28:07.914Z,14.90
2023-05-19T07:30:53.613Z,15.00
2023-05-19T07:33:39.256Z,15.00
2023-05-19T07:36:25.116Z,15.00
2023-05-19T07:39:10.843Z,14.90
2023-05-19T07:41:56.477Z,14.90
2023-05-19T07:44:42.211Z,15.00
2023-05-19T07:47:27.797Z,15.00
2023-05-19T07:50:13.700Z,15.00
2023-05-19T07:52:59.493Z,15.00
2023-05-19T07:55:44.926Z,15.00
2023-05-19T07:58:31.022Z,15.00
2023-05-19T08:01:16.938Z,15.10
2023-05-19T08:04:02.832Z,15.10
2023-05-19T08:06:48.557Z,15.10
2023-05-19T08:09:34.172Z,15.10
2023-05-19T08:12:20.053Z,15.70
2023-05-19T08:15:06.603Z,15.10
2023-05-19T08:17:52.203Z,15.10
2023-05-19T08:20:37.870Z,15.00
2023-05-19T08:23:23.599Z,15.10
2023-05-19T08:26:09.120Z,15.10
2023-05-19T08:33:45.838Z,15.10
2023-05-19T08:36:31.883Z,15.00
2023-05-19T08:39:19.730Z,15.10
2023-05-19T08:42:07.483Z,15.10
2023-05-19T08:44:53.368Z,15.10
2023-05-19T08:47:41.121Z,15.10
2023-05-19T08:50:30.885Z,15.00
2023-05-19T08:53:33.073Z,14.90
2023-05-19T08:56:24.138Z,14.90
2023-05-19T08:59:10.243Z,17.90
2023-05-19T09:01:56.257Z,15.00
2023-05-19T09:04:46.144Z,15.10
2023-05-19T09:07:35.219Z,15.00
2023-05-19T09:10:21.016Z,15.00
2023-05-19T09:17:44.871Z,15.10
2023-05-19T09:20:30.782Z,15.10
2023-05-19T09:23:17.471Z,15.10
2023-05-19T09:26:08.011Z,15.20
2023-05-19T09:28:58.219Z,15.20
2023-05-19T09:31:48.951Z,15.10
2023-05-19T09:34:34.544Z,15.20
2023-05-19T09:37:22.978Z,15.20
2023-05-19T09:40:11.260Z,15.20
2023-05-19T09:42:58.047Z,15.30
2023-05-19T09:45:44.135Z,15.30
2023-05-19T09:48:30.612Z,15.30
2023-05-19T09:56:08.812Z,15.20
2023-05-19T09:58:54.249Z,15.10
2023-05-19T10:01:41.768Z,15.10
2023-05-19T10:04:28.559Z,15.20
2023-05-19T10:07:14.818Z,15.20
2023-05-19T10:14:40.906Z,15.10
2023-05-19T10:17:28.520Z,15.20
2023-05-19T10:20:15.189Z,15.10
2023-05-19T10:23:02.855Z,15.20
2023-05-19T10:25:49.413Z,15.10
2023-05-19T10:28:36.953Z,15.10
2023-05-19T10:31:23.310Z,15.20
2023-05-19T10:34:24.197Z,15.20
2023-05-19T10:37:09.886Z,15.20
2023-05-19T10:50:04.710Z,15.20
2023-05-19T10:52:55.803Z,15.10
2023-05-19T11:31:08.031Z,15.40
2023-05-19T11:33:54.093Z,15.40
2023-05-19T11:36:40.192Z,15.50
2023-05-19T11:39:25.960Z,15.40
2023-05-19T11:42:11.670Z,15.40
2023-05-19T11:44:58.500Z,15.30
2023-05-19T11:48:01.116Z,15.30
2023-05-19T11:50:48.490Z,15.20
2023-05-19T11:53:36.194Z,15.20
2023-05-19T11:56:22.125Z,15.10
2023-05-19T11:59:08.291Z,15.10
2023-05-19T12:01:54.474Z,15.00
2023-05-19T12:04:40.797Z,15.00
2023-05-19T12:07:26.842Z,14.90
2023-05-19T12:10:12.598Z,14.90
2023-05-19T12:13:00.029Z,14.90
2023-05-19T12:44:36.651Z,14.90
2023-05-19T12:52:06.606Z,15.00
2023-05-19T12:59:49.512Z,14.90
2023-05-19T13:17:21.299Z,15.10
2023-05-19T13:20:10.296Z,15.00
2023-05-19T13:22:57.114Z,15.10
2023-05-19T13:25:43.383Z,15.10
2023-05-19T13:28:29.484Z,15.10
2023-05-19T13:31:15.136Z,15.20
2023-05-19T13:34:00.608Z,15.20
2023-05-19T13:36:48.304Z,15.30
2023-05-19T13:39:34.203Z,15.20
2023-05-19T13:42:19.917Z,15.20
2023-05-19T13:45:06.326Z,15.10
2023-05-19T13:47:52.082Z,15.10
2023-05-19T13:50:37.854Z,15.00
2023-05-19T13:53:24.072Z,15.00
2023-05-19T13:56:10.230Z,15.10
2023-05-19T13:58:57.092Z,15.20
2023-05-19T14:01:43.657Z,15.20
2023-05-19T14:04:29.551Z,15.10
2023-05-19T14:07:16.772Z,15.00
2023-05-19T14:10:03.026Z,15.00
2023-05-19T14:13:14.051Z,15.00
2023-05-19T14:15:54.733Z,15.10
2023-05-19T14:18:40.642Z,15.10
2023-05-19T14:21:26.264Z,15.00
2023-05-19T14:24:11.904Z,15.10
2023-05-19T14:26:57.871Z,15.00
2023-05-19T14:29:43.569Z,15.00
2023-05-19T14:32:30.436Z,15.00
2023-05-19T14:35:16.291Z,15.00
2023-05-19T14:38:02.358Z,15.00
2023-05-19T14:40:48.793Z,15.00
2023-05-19T14:43:34.973Z,15.10
2023-05-19T14:46:21.013Z,15.10
2023-05-19T14:49:07.037Z,15.10
2023-05-19T14:51:52.857Z,15.00
2023-05-19T14:54:38.535Z,15.00
2023-05-19T14:57:24.097Z,15.00
2023-05-19T15:00:10.384Z,15.00
2023-05-19T15:02:56.566Z,15.00
2023-05-19T15:05:42.351Z,15.00
2023-05-19T15:08:27.935Z,15.00
2023-05-19T15:11:13.770Z,15.00
2023-05-19T15:13:59.479Z,15.00
2023-05-19T15:16:45.340Z,15.10
2023-05-19T15:19:31.186Z,15.00
2023-05-19T15:22:16.783Z,14.90
2023-05-19T15:25:02.545Z,14.90
2023-05-19T15:27:48.423Z,14.90
2023-05-19T15:30:34.663Z,14.90
2023-05-19T15:33:20.624Z,14.90
2023-05-19T15:36:06.252Z,15.10
2023-05-19T15:38:51.839Z,15.10
2023-05-19T15:41:37.372Z,15.10
2023-05-19T15:44:23.034Z,15.20
2023-05-19T15:47:08.938Z,15.10
2023-05-19T15:49:54.623Z,15.20
2023-05-19T15:52:40.657Z,15.20
2023-05-19T15:55:26.640Z,15.20
2023-05-19T15:58:13.798Z,15.30
2023-05-19T16:00:59.312Z,15.30
2023-05-19T16:03:45.513Z,15.30
2023-05-19T16:06:31.669Z,15.10
2023-05-19T16:09:18.547Z,15.10
2023-05-19T16:12:04.264Z,15.20
2023-05-19T16:14:49.853Z,15.20
2023-05-19T16:17:35.692Z,15.20
2023-05-19T16:20:24.074Z,15.10
2023-05-19T16:23:10.217Z,15.20
2023-05-19T16:25:57.593Z,15.10
2023-05-19T16:28:43.943Z,15.10
2023-05-19T16:31:30.093Z,15.20
2023-05-19T16:34:15.905Z,15.10
2023-05-19T16:37:01.442Z,15.20
2023-05-19T16:39:48.458Z,15.10
2023-05-19T16:42:33.835Z,15.10
2023-05-19T16:45:19.481Z,15.10
2023-05-19T16:48:05.242Z,15.10
2023-05-19T16:50:50.646Z,14.90
2023-05-19T16:53:36.568Z,14.90
2023-05-19T16:56:22.398Z,14.90
2023-05-19T16:59:08.980Z,14.90
2023-05-19T17:01:56.104Z,14.90
2023-05-19T17:04:41.907Z,14.90
2023-05-19T17:07:29.207Z,15.00
2023-05-19T17:10:15.576Z,15.00
2023-05-19T17:13:01.311Z,15.00
2023-05-19T17:15:46.885Z,15.00
2023-05-19T17:18:32.428Z,15.10
2023-05-19T17:21:18.074Z,15.00
2023-05-19T17:24:03.989Z,15.00
2023-05-19T17:26:49.551Z,14.90
2023-05-19T17:29:36.899Z,14.90
2023-05-19T17:32:25.878Z,14.80
2023-05-19T17:35:11.325Z,14.90
2023-05-19T17:37:57.969Z,14.90
2023-05-19T17:40:43.991Z,14.90
2023-05-19T17:43:29.888Z,14.90
2023-05-19T17:46:15.954Z,14.80
2023-05-19T17:49:01.831Z,14.80
2023-05-19T17:51:47.384Z,14.80
2023-05-19T17:54:33.664Z,14.80
2023-05-19T17:57:20.169Z,14.80
2023-05-19T18:00:06.597Z,14.80
2023-05-19T18:02:52.776Z,14.80
2023-05-19T18:05:40.058Z,14.80
2023-05-19T18:08:26.009Z,14.80
2023-05-19T18:11:15.936Z,14.80
2023-05-19T18:14:01.791Z,14.90
2023-05-19T18:16:48.772Z,14.90
2023-05-19T18:19:34.569Z,14.80
2023-05-19T18:22:20.653Z,14.90
2023-05-19T18:25:06.737Z,14.90
2023-05-19T18:27:55.768Z,14.90
2023-05-19T18:30:41.245Z,14.90
2023-05-19T18:33:28.576Z,14.90
2023-05-19T18:36:16.671Z,14.80
2023-05-19T18:39:02.694Z,14.90
2023-05-19T18:41:48.466Z,14.90
2023-05-19T18:44:34.154Z,14.80
2023-05-19T18:47:19.862Z,14.80
2023-05-19T18:50:05.700Z,14.80
2023-05-19T18:52:51.122Z,14.80
2023-05-19T18:55:38.372Z,14.90
2023-05-19T18:58:24.226Z,14.90
2023-05-19T19:01:10.177Z,14.80
2023-05-19T19:03:55.831Z,14.80
2023-05-19T19:06:42.052Z,14.80
2023-05-19T19:09:28.682Z,14.70
2023-05-19T19:12:14.136Z,14.80
2023-05-19T19:14:59.963Z,14.70
2023-05-19T19:17:45.913Z,14.60
2023-05-19T19:20:31.484Z,14.60
2023-05-19T19:23:17.164Z,14.60
2023-05-19T19:26:03.165Z,14.60
2023-05-19T19:28:48.954Z,14.50
2023-05-19T19:31:34.766Z,14.40
2023-05-19T19:34:20.468Z,14.50
2023-05-19T19:37:06.181Z,14.60
2023-05-19T19:39:52.338Z,14.50
2023-05-19T19:42:38.649Z,14.50
2023-05-19T19:45:24.297Z,14.50
2023-05-19T19:48:09.993Z,14.50
2023-05-19T19:50:56.708Z,14.50
2023-05-19T19:53:43.018Z,14.50
2023-05-19T19:56:29.995Z,14.50
2023-05-19T19:59:16.157Z,14.50
2023-05-19T20:02:02.935Z,14.50
2023-05-19T20:04:49.586Z,14.40
2023-05-19T20:07:35.311Z,14.40
2023-05-19T20:10:20.852Z,14.50
2023-05-19T20:13:06.584Z,14.50
2023-05-19T20:15:52.081Z,14.50
2023-05-19T20:18:38.614Z,14.50
2023-05-19T20:21:24.780Z,14.50
2023-05-19T20:24:10.437Z,14.50
2023-05-19T20:26:56.529Z,14.50
2023-05-19T20:29:42.628Z,14.50
2023-05-19T20:32:28.423Z,14.50
2023-05-19T20:35:14.306Z,14.50
2023-05-19T20:38:00.149Z,14.50
2023-05-19T20:40:46.046Z,14.50
2023-05-19T20:43:32.992Z,14.50
2023-05-19T20:46:18.668Z,14.50
2023-05-19T20:49:04.328Z,14.50
2023-05-19T20:51:50.195Z,14.50
2023-05-19T20:54:36.120Z,14.50
2023-05-19T20:57:21.751Z,14.50
2023-05-19T21:00:07.862Z,14.50
2023-05-19T21:02:53.608Z,14.50
2023-05-19T21:05:39.384Z,14.50
2023-05-19T21:08:25.578Z,14.50
2023-05-19T21:11:11.328Z,14.50
2023-05-19T21:13:57.180Z,14.50
2023-05-19T21:16:42.713Z,14.40
2023-05-19T21:19:28.665Z,14.40
2023-05-19T21:22:14.252Z,14.50
2023-05-19T21:25:00.151Z,14.40
2023-05-19T21:27:46.519Z,14.40
2023-05-19T21:30:32.499Z,14.40
2023-05-19T21:33:18.418Z,14.50
2023-05-19T21:36:04.526Z,14.50
2023-05-19T21:38:52.911Z,14.50
2023-05-19T21:41:38.699Z,14.50
2023-05-19T21:44:25.210Z,14.50
2023-05-19T21:47:10.896Z,14.50
2023-05-19T21:49:56.484Z,14.50
2023-05-19T21:52:42.104Z,14.50
2023-05-19T21:55:27.856Z,14.50
2023-05-19T21:58:13.615Z,14.50
2023-05-19T22:01:00.426Z,14.50
2023-05-19T22:03:45.916Z,14.50
2023-05-19T22:06:31.670Z,14.50
2023-05-19T22:09:18.135Z,14.40
2023-05-19T22:12:03.650Z,14.40
2023-05-19T22:14:49.174Z,14.40
2023-05-19T22:17:35.096Z,14.40
2023-05-19T22:20:20.779Z,14.40
2023-05-19T22:23:06.493Z,14.40
2023-05-19T22:25:52.089Z,14.50
2023-05-19T22:28:37.752Z,14.50
2023-05-19T22:31:23.368Z,14.50
2023-05-19T22:34:09.200Z,14.50
2023-05-19T22:36:54.740Z,14.50
2023-05-19T22:39:40.684Z,14.50
2023-05-19T22:42:27.032Z,14.50
2023-05-19T22:45:12.643Z,14.50
2023-05-19T22:47:58.286Z,14.50
2023-05-19T22:50:43.965Z,14.50
2023-05-19T22:53:29.544Z,14.40
2023-05-19T22:56:15.220Z,14.40
2023-05-19T22:59:00.911Z,14.40
2023-05-19T23:01:47.120Z,14.40
2023-05-19T23:04:33.848Z,14.40
2023-05-19T23:07:19.802Z,14.40
2023-05-19T23:10:07.473Z,14.40
2023-05-19T23:12:53.495Z,14.40
2023-05-19T23:15:38.918Z,14.40
2023-05-19T23:18:24.537Z,14.40
2023-05-19T23:21:10.312Z,14.40
2023-05-19T23:23:56.252Z,14.40
2023-05-19T23:26:44.835Z,14.40
2023-05-19T23:29:30.471Z,18.20
2023-05-19T23:32:16.120Z,14.40
2023-05-19T23:35:16.370Z,14.40
2023-05-19T23:38:02.056Z,14.40
2023-05-19T23:40:47.656Z,14.40
2023-05-19T23:43:33.602Z,14.40
2023-05-19T23:46:19.212Z,14.40
2023-05-19T23:49:05.072Z,14.40
2023-05-19T23:51:50.955Z,14.40
2023-05-19T23:54:36.755Z,14.50
2023-05-19T23:57:22.705Z,14.50
